Time;durP1;ratioP1;P1;durP2;ratioP2;P2;SDS_P1;SDS_P2;PMS_P1;PMS_P2;Temp;Humidity;BMP_temperature;BMP_pressure;BME280_temperature;BME280_humidity;BME280_pressure;Samples;Min_cycle;Max_cycle;Signal;HPM_P1;HPM_P2
2022/01/30 00:02:17;;;;;;;0.00;0.00;;;5.10;99.90;;;;;;6210831;23;20004;-62
2022/01/30 00:04:43;;;;;;;0.00;0.00;;;5.20;99.90;;;;;;6210940;23;19993;-62
2022/01/30 00:07:08;;;;;;;0.00;0.00;;;5.20;99.90;;;;;;6212389;23;19985;-61
2022/01/30 00:09:34;;;;;;;0.00;0.00;;;5.20;99.90;;;;;;6211462;23;19989;-62
2022/01/30 00:12:03;;;;;;;0.00;0.00;;;5.10;99.90;;;;;;6212931;23;20044;-62
2022/01/30 00:14:33;;;;;;;0.00;0.00;;;5.10;99.90;;;;;;6212367;23;20046;-60
2022/01/30 00:17:22;;;;;;;0.00;0.00;;;5.00;99.90;;;;;;6210023;23;20072;-60
2022/01/30 00:19:54;;;;;;;0.00;0.00;;;4.80;99.90;;;;;;6212581;23;19993;-61
2022/01/30 00:24:52;;;;;;;0.00;0.00;;;4.90;99.90;;;;;;6213511;23;20066;-62
2022/01/30 00:27:27;;;;;;;0.00;0.00;;;4.80;99.90;;;;;;6212036;23;19989;-61
2022/01/30 00:29:53;;;;;;;0.00;0.00;;;4.70;99.90;;;;;;6211559;23;19985;-61
2022/01/30 00:32:18;;;;;;;0.00;0.00;;;4.70;99.90;;;;;;6212433;23;19985;-65
2022/01/30 00:37:09;;;;;;;0.00;0.00;;;4.80;99.90;;;;;;6208897;23;19986;-62
2022/01/30 00:39:35;;;;;;;0.00;0.00;;;4.90;99.90;;;;;;6212380;23;20061;-61
2022/01/30 00:42:01;;;;;;;0.00;0.00;;;4.90;99.90;;;;;;6211043;23;20013;-61
2022/01/30 00:44:27;;;;;;;0.00;0.00;;;4.80;99.90;;;;;;6210791;23;19989;-61
2022/01/30 00:46:54;;;;;;;0.00;0.00;;;4.60;99.90;;;;;;6211867;23;19985;-61
2022/01/30 00:49:20;;;;;;;0.00;0.00;;;4.50;99.90;;;;;;6210552;23;20020;-60
2022/01/30 00:51:46;;;;;;;0.00;0.00;;;4.70;99.90;;;;;;6211794;23;19993;-61
2022/01/30 00:54:11;;;;;;;0.00;0.00;;;4.80;99.90;;;;;;6211588;23;19993;-61
2022/01/30 00:56:37;;;;;;;0.00;0.00;;;4.80;99.90;;;;;;6210149;23;19993;-61
2022/01/30 00:59:03;;;;;;;0.00;0.00;;;4.60;99.90;;;;;;6212459;23;19993;-59
2022/01/30 01:01:28;;;;;;;0.00;0.00;;;4.70;99.90;;;;;;6212003;23;20012;-61
2022/01/30 01:03:54;;;;;;;0.00;0.00;;;4.50;99.90;;;;;;6211397;23;20038;-61
2022/01/30 01:06:20;;;;;;;0.00;0.00;;;4.50;99.90;;;;;;6212446;23;20004;-59
2022/01/30 01:09:01;;;;;;;0.00;0.00;;;4.50;99.90;;;;;;6211069;23;20001;-62
2022/01/30 01:24:55;;;;;;;0.00;0.00;;;4.40;99.90;;;;;;6212250;23;20016;-60
2022/01/30 01:27:21;;;;;;;0.00;0.00;;;4.40;99.90;;;;;;6210460;23;20009;-60
2022/01/30 01:29:46;;;;;;;0.00;0.00;;;4.30;99.90;;;;;;6211656;23;19985;-60
2022/01/30 01:32:12;;;;;;;0.00;0.00;;;4.30;99.90;;;;;;6211600;23;19985;-59
2022/01/30 01:34:40;;;;;;;0.00;0.00;;;4.30;99.90;;;;;;6211951;23;20033;-61
2022/01/30 01:37:11;;;;;;;0.00;0.00;;;4.30;99.90;;;;;;6211398;23;19996;-61
2022/01/30 01:39:36;;;;;;;0.00;0.00;;;4.20;99.90;;;;;;6212258;23;19990;-60
2022/01/30 01:42:03;;;;;;;0.00;0.00;;;4.30;99.90;;;;;;6210986;23;20020;-59
2022/01/30 01:44:35;;;;;;;0.00;0.00;;;4.30;99.90;;;;;;6211571;23;19989;-59
2022/01/30 01:47:02;;;;;;;0.00;0.00;;;4.40;99.90;;;;;;6212573;23;20040;-62
2022/01/30 01:49:30;;;;;;;0.00;0.00;;;4.30;99.90;;;;;;6209741;23;20084;-60
2022/01/30 01:52:18;;;;;;;0.00;0.00;;;4.40;99.90;;;;;;6211770;23;20032;-61
2022/01/30 01:54:48;;;;;;;;;;;4.20;99.90;;;;;;6212652;23;20016;-59
2022/01/30 01:57:14;;;;;;;0.00;0.00;;;4.10;99.90;;;;;;6210778;23;19914;-62
2022/01/30 01:59:40;;;;;;;0.00;0.00;;;4.10;99.90;;;;;;6212001;23;20001;-62
2022/01/30 02:02:05;;;;;;;;;;;4.20;99.90;;;;;;6211398;23;19997;-61
2022/01/30 02:04:31;;;;;;;0.00;0.00;;;4.20;99.90;;;;;;6211778;23;19917;-61
2022/01/30 02:09:42;;;;;;;0.00;0.00;;;4.20;99.90;;;;;;6210151;23;20000;-60
2022/01/30 02:12:16;;;;;;;0.00;0.00;;;4.20;99.90;;;;;;6211225;23;20004;-61
2022/01/30 02:15:03;;;;;;;0.00;0.00;;;4.10;99.90;;;;;;6212052;23;19993;-62
2022/01/30 02:25:48;;;;;;;0.00;0.00;;;4.20;99.90;;;;;;6211614;23;20016;-61
2022/01/30 02:28:17;;;;;;;0.00;0.00;;;4.00;99.90;;;;;;6182822;23;20004;-60
2022/01/30 02:30:52;;;;;;;0.00;0.00;;;4.00;99.90;;;;;;6212025;23;19993;-60
2022/01/30 02:33:21;;;;;;;0.00;0.00;;;4.10;99.90;;;;;;6211776;23;19989;-59
2022/01/30 02:35:47;;;;;;;0.00;0.00;;;4.20;99.90;;;;;;6209310;23;19993;-61
2022/01/30 02:38:15;;;;;;;0.00;0.00;;;4.20;99.90;;;;;;6210441;23;19993;-60
2022/01/30 02:40:43;;;;;;;0.00;0.00;;;3.80;99.90;;;;;;6211422;22;19989;-59
2022/01/30 02:43:09;;;;;;;0.00;0.00;;;3.80;99.90;;;;;;6209782;23;20053;-58
2022/01/30 02:45:38;;;;;;;;;;;4.00;99.90;;;;;;6212222;23;20000;-61
2022/01/30 02:50:53;;;;;;;0.00;0.00;;;3.60;99.90;;;;;;6209530;23;20012;-60
2022/01/30 02:53:24;;;;;;;0.00;0.00;;;3.40;99.90;;;;;;6211158;23;20012;-61
2022/01/30 02:55:55;;;;;;;0.00;0.00;;;3.60;99.90;;;;;;6209984;23;20008;-60
2022/01/30 02:58:20;;;;;;;0.00;0.00;;;3.50;99.90;;;;;;6211301;23;20032;-61
2022/01/30 03:00:46;;;;;;;;;;;3.30;99.90;;;;;;6210492;23;20000;-61
2022/01/30 03:03:12;;;;;;;0.00;0.00;;;3.20;99.90;;;;;;6209608;23;19900;-60
2022/01/30 03:05:37;;;;;;;0.00;0.00;;;3.10;99.90;;;;;;6208370;23;20072;-59
2022/01/30 03:08:03;;;;;;;0.00;0.00;;;3.00;99.90;;;;;;6210559;23;20009;-61
2022/01/30 03:10:29;;;;;;;0.00;0.00;;;2.90;99.90;;;;;;6209302;23;20007;-63
2022/01/30 03:12:54;;;;;;;;;;;2.90;99.90;;;;;;6211536;23;20045;-60
2022/01/30 03:15:20;;;;;;;0.00;0.00;;;2.90;99.90;;;;;;6210583;23;19920;-60
2022/01/30 03:17:45;;;;;;;0.00;0.00;;;2.90;99.90;;;;;;6209657;23;20009;-61
2022/01/30 03:20:11;;;;;;;0.00;0.00;;;3.10;99.90;;;;;;6210082;23;19990;-60
2022/01/30 03:22:40;;;;;;;0.00;0.00;;;3.10;99.90;;;;;;6209613;23;20020;-59
2022/01/30 03:25:06;;;;;;;0.00;0.00;;;3.10;99.90;;;;;;6208536;23;19992;-62
2022/01/30 03:27:32;;;;;;;0.00;0.00;;;3.00;99.90;;;;;;6209626;23;20013;-59
2022/01/30 03:30:06;;;;;;;;;;;3.00;99.90;;;;;;6211503;23;20012;-61
2022/01/30 03:32:32;;;;;;;0.00;0.00;;;2.90;99.90;;;;;;6213681;23;19896;-61
2022/01/30 03:34:58;;;;;;;0.00;0.00;;;3.00;99.90;;;;;;6211428;23;20207;-59
2022/01/30 03:37:23;;;;;;;0.00;0.00;;;3.00;99.90;;;;;;6213101;23;20009;-60
2022/01/30 03:39:49;;;;;;;0.00;0.00;;;3.00;99.90;;;;;;6213625;23;19992;-61
2022/01/30 03:42:14;;;;;;;;;;;2.90;99.90;;;;;;6212069;23;20001;-60
2022/01/30 03:44:40;;;;;;;0.00;0.00;;;2.90;99.90;;;;;;6211494;23;19888;-60
2022/01/30 03:47:06;;;;;;;0.00;0.00;;;2.90;99.90;;;;;;6213621;23;20009;-60
2022/01/30 03:49:33;;;;;;;0.00;0.00;;;3.10;99.90;;;;;;6212133;23;20000;-60
2022/01/30 03:51:58;;;;;;;0.00;0.00;;;3.10;99.90;;;;;;6213110;23;20095;-61
2022/01/30 03:54:24;;;;;;;0.00;0.00;;;3.20;99.90;;;;;;6213313;23;20008;-60
2022/01/30 03:56:49;;;;;;;0.00;0.00;;;3.20;99.90;;;;;;6212067;23;19993;-60
2022/01/30 03:59:15;;;;;;;0.00;0.00;;;2.90;99.90;;;;;;6213309;23;19989;-61
2022/01/30 04:01:41;;;;;;;0.00;0.00;;;2.80;99.90;;;;;;6211689;23;20001;-59
2022/01/30 04:04:07;;;;;;;0.00;0.00;;;2.70;99.90;;;;;;6213125;23;19990;-61
2022/01/30 04:06:33;;;;;;;0.00;0.00;;;2.70;99.90;;;;;;6212865;23;19993;-61
2022/01/30 04:08:59;;;;;;;0.00;0.00;;;2.60;99.90;;;;;;6211818;23;20009;-60
2022/01/30 04:11:25;;;;;;;0.00;0.00;;;2.70;99.90;;;;;;6212776;23;20031;-61
2022/01/30 04:13:54;;;;;;;0.00;0.00;;;2.80;99.90;;;;;;6211601;23;19998;-60
2022/01/30 04:16:20;;;;;;;0.00;0.00;;;2.60;99.90;;;;;;6211300;23;20053;-63
2022/01/30 04:18:45;;;;;;;0.00;0.00;;;2.60;99.90;;;;;;6211909;23;19993;-58
2022/01/30 04:21:11;;;;;;;0.00;0.00;;;2.70;99.90;;;;;;6212293;23;19993;-61
2022/01/30 04:23:39;;;;;;;0.00;0.00;;;2.80;99.90;;;;;;6211766;23;20023;-60
2022/01/30 04:26:08;;;;;;;0.00;0.00;;;2.80;99.90;;;;;;6210920;23;20028;-60
2022/01/30 04:28:33;;;;;;;0.00;0.00;;;2.90;99.90;;;;;;6185709;23;19996;-60
2022/01/30 04:30:59;;;;;;;0.00;0.00;;;2.90;99.90;;;;;;6210524;23;19997;-60
2022/01/30 04:33:25;;;;;;;0.00;0.00;;;2.90;99.90;;;;;;6211618;23;19989;-59
2022/01/30 04:35:52;;;;;;;;;;;3.00;99.90;;;;;;6210371;23;20045;-61
2022/01/30 04:38:22;;;;;;;0.00;0.00;;;2.90;99.90;;;;;;6211197;23;19903;-60
2022/01/30 04:52:23;;;;;;;0.00;0.00;;;2.90;99.90;;;;;;6211448;23;20016;-61
2022/01/30 05:09:31;;;;;;;0.00;0.00;;;2.40;99.90;;;;;;6210447;23;19916;-60
2022/01/30 05:11:57;;;;;;;;;;;2.40;99.90;;;;;;6211708;23;20058;-61
2022/01/30 05:14:26;;;;;;;0.00;0.00;;;2.30;99.90;;;;;;6210931;23;19919;-60
2022/01/30 05:16:52;;;;;;;0.00;0.00;;;2.20;99.90;;;;;;6211233;23;20199;-60
2022/01/30 05:19:17;;;;;;;;;;;2.30;99.90;;;;;;6211693;23;20004;-60
2022/01/30 05:21:43;;;;;;;0.00;0.00;;;2.30;99.90;;;;;;6210728;23;19940;-59
2022/01/30 05:24:10;;;;;;;0.03;0.03;;;2.20;99.90;;;;;;6211317;23;19993;-62
2022/01/30 05:26:42;;;;;;;0.00;0.00;;;2.10;99.90;;;;;;6210245;23;19989;-60
2022/01/30 05:29:08;;;;;;;0.00;0.00;;;1.90;99.90;;;;;;6210611;23;19993;-63
2022/01/30 05:31:35;;;;;;;0.00;0.00;;;2.00;99.90;;;;;;6212104;23;19993;-63
2022/01/30 05:34:01;;;;;;;0.00;0.00;;;2.10;99.90;;;;;;6210692;23;19989;-60
2022/01/30 05:36:28;;;;;;;0.00;0.00;;;2.00;99.90;;;;;;6211112;23;19993;-61
2022/01/30 05:38:55;;;;;;;0.00;0.00;;;2.00;99.90;;;;;;6211204;23;20003;-62
2022/01/30 05:41:21;;;;;;;0.00;0.00;;;2.30;99.90;;;;;;6211804;23;19996;-60
2022/01/30 05:43:51;;;;;;;0.00;0.00;;;2.20;99.90;;;;;;6210045;23;19986;-62
2022/01/30 05:46:29;;;;;;;0.00;0.00;;;2.10;99.90;;;;;;6212057;23;19985;-62
2022/01/30 05:48:55;;;;;;;0.00;0.00;;;2.20;99.90;;;;;;6210987;23;20009;-63
2022/01/30 05:51:21;;;;;;;0.00;0.00;;;2.00;99.90;;;;;;6210724;23;20001;-61
2022/01/30 05:53:46;;;;;;;0.00;0.00;;;1.80;99.90;;;;;;6211879;23;19993;-62
2022/01/30 05:56:12;;;;;;;;;;;1.70;99.90;;;;;;6211246;23;20092;-61
2022/01/30 05:58:39;;;;;;;0.00;0.00;;;1.70;99.90;;;;;;6210634;23;19970;-61
2022/01/30 06:01:05;;;;;;;0.00;0.00;;;1.80;99.90;;;;;;6211532;23;19987;-59
2022/01/30 06:03:30;;;;;;;0.00;0.00;;;1.70;99.90;;;;;;6210141;23;20009;-62
2022/01/30 06:05:56;;;;;;;;;;;1.50;99.90;;;;;;6211913;23;19985;-61
2022/01/30 06:08:41;;;;;;;0.00;0.00;;;1.50;99.90;;;;;;6210626;23;19892;-60
2022/01/30 06:11:08;;;;;;;0.00;0.00;;;1.50;99.90;;;;;;6210424;23;20024;-60
2022/01/30 06:13:34;;;;;;;0.00;0.00;;;1.50;99.90;;;;;;6211145;23;19993;-62
2022/01/30 06:15:59;;;;;;;0.00;0.00;;;1.50;99.90;;;;;;6209665;23;20033;-61
2022/01/30 06:18:26;;;;;;;;;;;1.40;99.90;;;;;;6212110;23;20016;-62
2022/01/30 06:20:52;;;;;;;0.00;0.00;;;1.60;99.90;;;;;;6211441;23;19903;-60
2022/01/30 06:23:17;;;;;;;0.00;0.00;;;1.80;99.90;;;;;;6210436;23;20005;-60
2022/01/30 06:25:43;;;;;;;0.00;0.00;;;1.70;99.90;;;;;;6211326;23;20045;-61
2022/01/30 06:28:09;;;;;;;;;;;1.60;99.90;;;;;;6186681;23;20037;-59
2022/01/30 06:30:34;;;;;;;0.00;0.00;;;1.50;99.90;;;;;;6209816;23;19908;-61
2022/01/30 06:33:00;;;;;;;0.00;0.00;;;1.60;99.90;;;;;;6211970;23;19993;-61
2022/01/30 06:35:26;;;;;;;;;;;1.50;99.90;;;;;;6210500;23;19993;-61
2022/01/30 06:37:52;;;;;;;0.00;0.00;;;1.30;99.90;;;;;;6211586;23;19892;-60
2022/01/30 06:40:18;;;;;;;;;;;1.30;99.90;;;;;;6211856;23;19992;-61
2022/01/30 06:42:43;;;;;;;0.00;0.00;;;1.30;99.90;;;;;;6210541;23;19900;-61
2022/01/30 06:45:09;;;;;;;0.00;0.00;;;1.30;99.90;;;;;;6211213;23;20024;-61
2022/01/30 06:47:42;;;;;;;;;;;1.50;99.90;;;;;;6211501;23;19998;-62
2022/01/30 06:50:08;;;;;;;0.00;0.00;;;1.50;99.90;;;;;;6210522;23;19892;-61
2022/01/30 06:52:34;;;;;;;0.00;0.00;;;1.40;99.90;;;;;;6211450;23;20017;-62
2022/01/30 06:54:59;;;;;;;0.00;0.00;;;1.40;99.90;;;;;;6209924;23;19993;-61
2022/01/30 06:57:25;;;;;;;0.00;0.00;;;1.50;99.90;;;;;;6211209;23;20016;-61
2022/01/30 06:59:51;;;;;;;0.00;0.00;;;1.70;99.90;;;;;;6211049;23;19989;-61
2022/01/30 07:02:17;;;;;;;0.00;0.00;;;1.60;99.90;;;;;;6209860;23;20005;-60
2022/01/30 07:04:42;;;;;;;;;;;1.50;99.90;;;;;;6212853;23;20074;-62
2022/01/30 07:07:08;;;;;;;0.00;0.00;;;1.50;99.90;;;;;;6213182;23;19919;-59
2022/01/30 07:09:34;;;;;;;;;;;1.70;99.90;;;;;;6212864;23;20000;-61
2022/01/30 07:12:00;;;;;;;0.00;0.00;;;1.70;99.90;;;;;;6212977;23;19892;-61
2022/01/30 07:14:25;;;;;;;;;;;1.70;99.90;;;;;;6213306;23;20045;-61
2022/01/30 07:16:51;;;;;;;0.00;0.00;;;1.60;99.90;;;;;;6211620;23;19923;-61
2022/01/30 07:19:17;;;;;;;;;;;1.70;99.90;;;;;;6213042;23;20105;-59
2022/01/30 07:21:43;;;;;;;0.00;0.00;;;1.70;99.90;;;;;;6211368;23;19927;-61
2022/01/30 07:24:08;;;;;;;0.00;0.00;;;1.90;99.90;;;;;;6212220;23;20023;-61
2022/01/30 07:26:34;;;;;;;0.00;0.00;;;2.10;99.90;;;;;;6212132;23;20057;-60
2022/01/30 07:29:00;;;;;;;;;;;2.00;99.90;;;;;;6212017;23;19994;-62
2022/01/30 07:31:26;;;;;;;0.00;0.00;;;1.80;99.90;;;;;;6212752;23;19963;-63
2022/01/30 07:33:55;;;;;;;0.00;0.00;;;1.90;99.90;;;;;;6212998;23;19993;-61
2022/01/30 07:36:21;;;;;;;0.05;0.05;;;1.90;99.90;;;;;;6210688;23;19993;-61
2022/01/30 07:38:50;;;;;;;;;;;1.70;99.90;;;;;;6212589;23;20028;-62
2022/01/30 07:41:15;;;;;;;0.00;0.00;;;1.80;99.90;;;;;;6212764;23;19892;-60
2022/01/30 07:43:42;;;;;;;0.00;0.00;;;1.80;99.90;;;;;;6212132;23;20013;-60
2022/01/30 07:46:08;;;;;;;0.00;0.00;;;1.80;99.90;;;;;;6210624;23;20011;-61
2022/01/30 07:48:34;;;;;;;0.00;0.00;;;1.60;99.90;;;;;;6211086;23;19990;-59
2022/01/30 07:50:59;;;;;;;0.00;0.00;;;1.50;99.90;;;;;;6211654;23;19996;-61
2022/01/30 07:53:25;;;;;;;0.00;0.00;;;1.50;99.90;;;;;;6211778;23;20135;-61
2022/01/30 07:55:51;;;;;;;;;;;1.50;99.90;;;;;;6211568;23;20020;-62
2022/01/30 07:58:16;;;;;;;0.00;0.00;;;1.40;99.90;;;;;;6212176;23;19916;-61
2022/01/30 08:00:42;;;;;;;0.00;0.00;;;1.30;99.90;;;;;;6212213;23;19994;-59
2022/01/30 08:03:08;;;;;;;;;;;1.30;99.90;;;;;;6211163;23;20009;-61
2022/01/30 08:05:33;;;;;;;0.00;0.00;;;1.40;99.90;;;;;;6211724;23;19897;-60
2022/01/30 08:07:59;;;;;;;;;;;1.40;99.90;;;;;;6211219;23;20029;-62
2022/01/30 08:10:25;;;;;;;0.00;0.00;;;1.30;99.90;;;;;;6211062;23;19892;-58
2022/01/30 08:12:50;;;;;;;;;;;1.30;99.90;;;;;;6210621;23;20615;-60
2022/01/30 08:15:16;;;;;;;0.00;0.00;;;1.30;99.90;;;;;;6209564;23;19908;-62
2022/01/30 08:17:41;;;;;;;;;;;1.30;99.90;;;;;;6211360;23;20009;-61
2022/01/30 08:20:08;;;;;;;0.00;0.00;;;1.50;99.90;;;;;;6184589;23;19907;-59
2022/01/30 08:22:54;;;;;;;0.00;0.00;;;1.50;99.90;;;;;;6209605;23;20023;-61
2022/01/30 08:25:23;;;;;;;0.00;0.00;;;1.20;99.90;;;;;;6211064;23;19989;-60
2022/01/30 08:27:50;;;;;;;0.00;0.00;;;1.20;99.90;;;;;;6209971;23;19989;-64
2022/01/30 08:30:16;;;;;;;0.00;0.00;;;1.20;99.90;;;;;;6209212;23;20023;-61
2022/01/30 08:32:43;;;;;;;0.00;0.00;;;1.20;99.90;;;;;;6209740;23;20000;-62
2022/01/30 08:35:10;;;;;;;0.00;0.00;;;1.40;99.90;;;;;;6209577;23;19993;-60
2022/01/30 08:37:37;;;;;;;0.00;0.00;;;1.30;99.90;;;;;;6185775;23;19994;-62
2022/01/30 08:40:05;;;;;;;0.00;0.00;;;1.20;99.90;;;;;;6210808;23;20024;-64
2022/01/30 08:42:30;;;;;;;0.00;0.00;;;1.30;99.90;;;;;;6209527;23;20015;-62
2022/01/30 08:44:56;;;;;;;0.00;0.00;;;1.30;99.90;;;;;;6210303;23;19993;-60
2022/01/30 08:47:21;;;;;;;;;;;1.30;99.90;;;;;;6211045;23;19991;-64
2022/01/30 08:49:47;;;;;;;0.00;0.00;;;1.20;99.90;;;;;;6209925;23;19892;-62
2022/01/30 08:52:16;;;;;;;0.00;0.00;;;1.20;99.90;;;;;;6210541;23;20083;-60
2022/01/30 08:54:42;;;;;;;0.00;0.00;;;1.50;99.90;;;;;;6210158;23;19993;-61
2022/01/30 08:57:08;;;;;;;0.00;0.00;;;1.60;99.90;;;;;;6207914;23;19997;-61
2022/01/30 08:59:34;;;;;;;0.00;0.00;;;1.40;99.90;;;;;;6208854;23;19989;-61
2022/01/30 09:02:00;;;;;;;0.00;0.00;;;1.40;99.90;;;;;;6207178;23;20017;-62
2022/01/30 09:04:25;;;;;;;;;;;1.40;99.90;;;;;;6209808;23;20037;-63
2022/01/30 09:06:51;;;;;;;0.00;0.00;;;1.50;99.90;;;;;;6210704;23;19892;-62
2022/01/30 09:09:17;;;;;;;0.00;0.00;;;1.50;99.90;;;;;;6206145;23;20370;-63
2022/01/30 09:11:42;;;;;;;;;;;1.50;99.90;;;;;;6202785;23;20016;-63
2022/01/30 09:14:08;;;;;;;0.00;0.00;;;1.30;99.90;;;;;;6202957;23;19898;-62
2022/01/30 09:16:34;;;;;;;0.00;0.00;;;1.40;99.90;;;;;;6199998;23;20310;-62
2022/01/30 09:19:00;;;;;;;0.00;0.00;;;1.40;99.90;;;;;;6196112;23;20000;-63
2022/01/30 09:21:28;;;;;;;;;;;1.50;99.90;;;;;;6166088;23;20028;-62
2022/01/30 09:23:55;;;;;;;0.00;0.00;;;1.70;99.90;;;;;;6202738;23;19908;-62
2022/01/30 09:26:21;;;;;;;0.00;0.00;;;1.80;99.90;;;;;;6204541;23;20095;-62
2022/01/30 09:28:46;;;;;;;0.00;0.00;;;1.70;99.90;;;;;;6207775;23;20009;-62
2022/01/30 09:31:12;;;;;;;;;;;1.70;99.90;;;;;;6207547;23;20027;-63
2022/01/30 09:33:39;;;;;;;0.00;0.00;;;1.80;99.90;;;;;;6191438;23;19935;-62
2022/01/30 09:36:06;;;;;;;0.00;0.00;;;1.90;99.90;;;;;;6195385;23;20001;-62
2022/01/30 09:38:31;;;;;;;0.00;0.00;;;2.00;99.90;;;;;;6195976;23;20019;-61
2022/01/30 09:40:58;;;;;;;0.00;0.00;;;2.10;99.90;;;;;;6198847;23;20001;-63
2022/01/30 09:43:29;;;;;;;0.00;0.00;;;2.00;99.90;;;;;;6204072;23;20031;-63
2022/01/30 09:45:58;;;;;;;0.00;0.00;;;2.00;99.90;;;;;;6199122;23;20067;-63
2022/01/30 09:48:24;;;;;;;0.00;0.00;;;2.10;99.90;;;;;;6204454;23;20095;-63
2022/01/30 09:50:51;;;;;;;0.00;0.00;;;2.20;99.90;;;;;;6202092;23;20063;-62
2022/01/30 09:53:18;;;;;;;0.00;0.00;;;2.20;99.90;;;;;;6192728;23;20008;-63
2022/01/30 09:55:44;;;;;;;0.00;0.00;;;2.30;99.90;;;;;;6189409;23;20000;-61
2022/01/30 09:58:09;;;;;;;;;;;2.40;99.90;;;;;;6199351;23;20028;-63
2022/01/30 10:00:36;;;;;;;0.00;0.00;;;2.60;99.90;;;;;;6193800;23;19904;-63
2022/01/30 10:03:02;;;;;;;0.00;0.00;;;2.90;99.90;;;;;;6191439;23;20425;-63
2022/01/30 10:05:35;;;;;;;0.00;0.00;;;3.00;99.90;;;;;;6182849;23;20008;-67
2022/01/30 10:08:02;;;;;;;0.00;0.00;;;3.10;99.90;;;;;;6181265;23;20072;-67
2022/01/30 10:10:29;;;;;;;0.00;0.00;;;3.20;99.90;;;;;;6177288;23;20005;-67
2022/01/30 10:13:08;;;;;;;0.00;0.00;;;3.30;99.90;;;;;;6181696;23;20008;-68
2022/01/30 10:15:56;;;;;;;0.00;0.00;;;3.40;99.90;;;;;;6181470;23;20366;-68
2022/01/30 10:18:23;;;;;;;0.00;0.00;;;3.60;99.90;;;;;;6181991;23;20017;-66
2022/01/30 10:20:53;;;;;;;0.00;0.00;;;3.60;99.90;;;;;;6178918;23;20040;-66
2022/01/30 10:23:19;;;;;;;0.00;0.00;;;3.70;99.90;;;;;;6179627;23;20016;-65
2022/01/30 10:25:47;;;;;;;0.00;0.00;;;3.90;99.90;;;;;;6181282;23;20047;-66
2022/01/30 10:28:27;;;;;;;0.00;0.00;;;4.00;99.90;;;;;;6180510;23;20101;-65
2022/01/30 10:30:58;;;;;;;0.00;0.00;;;4.00;99.90;;;;;;6181343;23;20012;-65
2022/01/30 10:33:45;;;;;;;0.00;0.00;;;4.10;99.90;;;;;;6183670;23;20064;-66
2022/01/30 10:36:13;;;;;;;;;;;4.20;99.90;;;;;;6181443;23;20007;-65
2022/01/30 10:38:47;;;;;;;;;;;4.20;99.90;;;;;;6184701;23;19900;-65
2022/01/30 10:41:18;;;;;;;0.00;0.00;;;4.30;99.90;;;;;;6183219;23;20086;-66
2022/01/30 10:43:57;;;;;;;0.00;0.00;;;4.40;99.90;;;;;;6183217;23;20036;-65
2022/01/30 10:46:28;;;;;;;0.00;0.00;;;4.60;99.90;;;;;;6181718;23;20011;-65
2022/01/30 10:49:03;;;;;;;0.00;0.00;;;4.80;99.90;;;;;;6179357;23;20104;-65
2022/01/30 10:51:31;;;;;;;0.00;0.00;;;4.80;99.90;;;;;;6182762;23;20005;-65
2022/01/30 10:54:03;;;;;;;0.00;0.00;;;5.00;99.90;;;;;;6184379;23;20001;-65
2022/01/30 10:56:30;;;;;;;0.00;0.00;;;5.20;99.90;;;;;;6180900;23;20009;-67
2022/01/30 10:59:19;;;;;;;0.00;0.00;;;5.40;99.90;;;;;;6183414;23;20008;-65
2022/01/30 11:01:47;;;;;;;0.00;0.00;;;5.50;99.90;;;;;;6155995;23;20062;-66
2022/01/30 11:04:27;;;;;;;0.00;0.00;;;5.60;99.90;;;;;;6183205;23;20032;-65
2022/01/30 11:06:55;;;;;;;0.00;0.00;;;5.80;99.90;;;;;;6182557;23;20286;-65
2022/01/30 11:09:25;;;;;;;0.00;0.00;;;5.90;99.90;;;;;;6181757;23;20379;-65
2022/01/30 11:11:58;;;;;;;0.00;0.00;;;6.10;99.90;;;;;;6184038;23;20063;-66
2022/01/30 11:14:36;;;;;;;0.00;0.00;;;6.20;99.90;;;;;;6184537;23;20432;-65
2022/01/30 11:17:07;;;;;;;0.00;0.00;;;6.40;99.90;;;;;;6182337;23;20095;-65
2022/01/30 11:19:39;;;;;;;0.00;0.00;;;6.50;99.90;;;;;;6183788;23;20005;-67
2022/01/30 11:22:27;;;;;;;0.00;0.00;;;6.70;99.90;;;;;;6180883;23;20027;-66
2022/01/30 11:24:56;;;;;;;0.00;0.00;;;6.70;99.90;;;;;;6181261;23;20028;-65
2022/01/30 11:27:22;;;;;;;0.00;0.00;;;6.80;99.90;;;;;;6181663;23;20003;-67
2022/01/30 11:29:49;;;;;;;0.00;0.00;;;6.90;99.90;;;;;;6181241;23;20299;-65
2022/01/30 11:32:19;;;;;;;0.00;0.00;;;7.10;99.90;;;;;;6180771;23;20335;-65
2022/01/30 11:34:45;;;;;;;0.00;0.00;;;7.20;99.90;;;;;;6183076;23;20005;-64
2022/01/30 11:37:14;;;;;;;0.00;0.00;;;7.50;99.90;;;;;;6181068;23;20008;-66
2022/01/30 11:39:48;;;;;;;0.00;0.00;;;7.40;99.90;;;;;;6181756;23;20434;-66
2022/01/30 11:42:22;;;;;;;0.00;0.00;;;7.40;99.90;;;;;;6183831;23;20047;-66
2022/01/30 11:45:03;;;;;;;0.00;0.00;;;7.60;99.90;;;;;;6184873;23;20001;-66
2022/01/30 11:47:29;;;;;;;0.00;0.00;;;7.70;99.90;;;;;;6183953;23;20005;-66
2022/01/30 11:50:01;;;;;;;0.00;0.00;;;7.70;99.90;;;;;;6182748;23;20001;-66
2022/01/30 11:52:47;;;;;;;0.00;0.00;;;7.80;99.90;;;;;;6183260;23;20005;-66
2022/01/30 11:55:38;;;;;;;0.00;0.00;;;7.90;99.90;;;;;;6181632;23;20450;-66
2022/01/30 11:58:05;;;;;;;0.00;0.00;;;8.00;99.90;;;;;;6184391;23;20043;-66
2022/01/30 12:00:48;;;;;;;0.00;0.00;;;8.00;99.90;;;;;;6183577;23;20008;-66
2022/01/30 12:03:37;;;;;;;0.00;0.00;;;8.00;99.90;;;;;;6181814;23;20016;-67
2022/01/30 12:06:41;;;;;;;0.00;0.00;;;8.20;99.90;;;;;;6162489;23;20032;-66
2022/01/30 12:09:16;;;;;;;0.00;0.00;;;8.30;99.90;;;;;;6182582;23;20024;-65
2022/01/30 12:11:47;;;;;;;0.00;0.00;;;8.20;99.90;;;;;;6183884;23;20083;-64
2022/01/30 12:14:21;;;;;;;0.00;0.00;;;8.20;99.90;;;;;;6184958;23;20005;-65
2022/01/30 12:16:52;;;;;;;0.00;0.00;;;8.20;99.90;;;;;;6182538;23;20295;-66
2022/01/30 12:19:45;;;;;;;0.00;0.00;;;8.30;99.90;;;;;;6183834;23;19994;-67
2022/01/30 12:22:17;;;;;;;0.00;0.00;;;8.50;99.90;;;;;;6164724;23;20064;-66
2022/01/30 12:24:44;;;;;;;0.00;0.00;;;8.70;99.90;;;;;;6184728;23;20051;-65
2022/01/30 12:27:10;;;;;;;0.00;0.00;;;8.70;99.90;;;;;;6183856;23;20028;-66
2022/01/30 12:29:37;;;;;;;;;;;8.60;99.90;;;;;;6181942;23;20011;-65
2022/01/30 12:32:24;;;;;;;0.00;0.00;;;8.60;99.90;;;;;;6183296;23;19906;-66
2022/01/30 12:34:55;;;;;;;0.00;0.00;;;8.60;99.90;;;;;;6184649;23;20343;-65
2022/01/30 12:37:36;;;;;;;0.00;0.00;;;8.60;99.90;;;;;;6183554;23;20021;-67
2022/01/30 12:40:16;;;;;;;0.00;0.00;;;8.60;99.90;;;;;;6183563;23;20059;-66
2022/01/30 12:42:42;;;;;;;0.00;0.00;;;8.70;99.90;;;;;;6182543;23;20032;-64
2022/01/30 12:45:09;;;;;;;0.00;0.00;;;8.70;99.90;;;;;;6183851;23;20005;-65
2022/01/30 12:47:59;;;;;;;0.00;0.00;;;8.70;99.90;;;;;;6182642;23;20041;-65
2022/01/30 12:50:28;;;;;;;0.00;0.00;;;8.70;99.90;;;;;;6181951;23;20011;-64
2022/01/30 12:52:54;;;;;;;0.00;0.00;;;8.70;99.90;;;;;;6181850;23;20029;-65
2022/01/30 12:55:22;;;;;;;0.00;0.00;;;8.70;99.90;;;;;;6182303;23;20063;-66
2022/01/30 12:57:53;;;;;;;0.00;0.00;;;8.70;99.90;;;;;;6184194;23;20084;-66
2022/01/30 13:00:19;;;;;;;0.00;0.00;;;8.70;99.90;;;;;;6183930;23;20016;-65
2022/01/30 13:03:01;;;;;;;0.00;0.00;;;8.60;99.90;;;;;;6181993;23;20001;-66
2022/01/30 13:05:29;;;;;;;0.00;0.00;;;8.70;99.90;;;;;;6182745;23;20024;-65
2022/01/30 13:07:57;;;;;;;0.00;0.00;;;8.70;99.90;;;;;;6183367;23;20054;-65
2022/01/30 13:10:24;;;;;;;0.00;0.00;;;8.70;99.90;;;;;;6181818;23;20040;-66
2022/01/30 13:12:51;;;;;;;0.00;0.00;;;8.80;99.90;;;;;;6183585;23;20011;-66
2022/01/30 13:15:19;;;;;;;0.00;0.00;;;8.80;99.90;;;;;;6182361;23;20009;-65
2022/01/30 13:17:45;;;;;;;0.00;0.00;;;8.80;99.90;;;;;;6182523;23;20021;-66
2022/01/30 13:20:13;;;;;;;0.00;0.00;;;8.80;99.90;;;;;;6181008;23;20021;-66
2022/01/30 13:22:43;;;;;;;0.00;0.00;;;8.90;99.90;;;;;;6180095;23;20343;-65
2022/01/30 13:25:13;;;;;;;0.00;0.00;;;8.90;99.90;;;;;;6182364;23;20087;-66
2022/01/30 13:27:44;;;;;;;0.00;0.00;;;8.90;99.90;;;;;;6179255;23;20015;-66
2022/01/30 13:30:11;;;;;;;0.00;0.00;;;8.90;99.90;;;;;;6180161;23;20005;-65
2022/01/30 13:32:39;;;;;;;0.00;0.00;;;8.80;99.90;;;;;;6180354;23;20005;-66
2022/01/30 13:35:13;;;;;;;0.00;0.00;;;8.80;99.90;;;;;;6179667;23;20433;-64
2022/01/30 13:37:39;;;;;;;0.00;0.00;;;8.80;99.90;;;;;;6179795;23;20064;-65
2022/01/30 13:40:14;;;;;;;0.00;0.00;;;8.90;99.90;;;;;;6179627;23;20008;-66
2022/01/30 13:42:52;;;;;;;0.00;0.00;;;9.00;99.90;;;;;;6181260;23;20013;-64
2022/01/30 13:47:52;;;;;;;0.00;0.00;;;9.00;99.90;;;;;;6182321;23;20020;-64
2022/01/30 13:50:19;;;;;;;0.00;0.00;;;8.90;99.90;;;;;;6180875;23;20401;-65
2022/01/30 13:52:45;;;;;;;0.00;0.00;;;8.80;99.90;;;;;;6182155;23;20001;-67
2022/01/30 13:55:11;;;;;;;0.00;0.00;;;8.70;99.90;;;;;;6179989;23;20008;-64
2022/01/30 13:57:38;;;;;;;;;;;8.60;99.90;;;;;;6177322;23;20071;-65
2022/01/30 14:00:18;;;;;;;0.00;0.00;;;8.70;99.90;;;;;;6176751;23;20286;-64
2022/01/30 14:02:55;;;;;;;0.00;0.00;;;8.60;99.90;;;;;;6177345;23;20525;-66
2022/01/30 14:05:27;;;;;;;0.00;0.00;;;8.70;99.90;;;;;;6181947;23;20072;-64
2022/01/30 14:07:54;;;;;;;0.00;0.00;;;8.60;99.90;;;;;;6182873;23;20005;-67
2022/01/30 14:10:28;;;;;;;0.00;0.00;;;8.60;99.90;;;;;;6180425;23;20009;-64
2022/01/30 14:13:01;;;;;;;0.00;0.00;;;8.70;99.90;;;;;;6179841;23;20081;-65
2022/01/30 14:15:26;;;;;;;0.00;0.00;;;8.80;99.90;;;;;;6179810;23;20004;-64
2022/01/30 14:18:07;;;;;;;0.00;0.00;;;8.70;99.90;;;;;;6180626;23;20017;-65